createdAt,value
2023-02-09T00:00:24.799Z,-3.43
2023-02-09T00:01:25.432Z,-3.43
2023-02-09T00:02:26.100Z,-3.43
2023-02-09T00:03:26.558Z,-3.44
2023-02-09T00:04:26.718Z,-3.45
2023-02-09T00:05:27.480Z,-3.45
2023-02-09T00:06:28.381Z,-3.45
2023-02-09T00:07:29.340Z,-3.45
2023-02-09T00:08:29.527Z,-3.46
2023-02-09T00:09:29.581Z,-3.46
2023-02-09T00:10:30.372Z,-3.47
2023-02-09T00:11:31.095Z,-3.47
2023-02-09T00:12:31.881Z,-3.47
2023-02-09T00:13:32.704Z,-3.48
2023-02-09T00:14:33.440Z,-3.48
2023-02-09T00:15:34.292Z,-3.48
2023-02-09T00:16:34.377Z,-3.48
2023-02-09T00:17:34.594Z,-3.49
2023-02-09T00:18:35.524Z,-3.49
2023-02-09T00:19:36.329Z,-3.49
2023-02-09T00:20:37.124Z,-3.49
2023-02-09T00:21:37.900Z,-3.49
2023-02-09T00:22:38.692Z,-3.50
2023-02-09T00:23:39.053Z,-3.50
2023-02-09T00:24:39.865Z,-3.50
2023-02-09T00:25:40.799Z,-3.51
2023-02-09T00:26:41.419Z,-3.51
2023-02-09T00:27:42.311Z,-3.51
2023-02-09T00:28:42.374Z,-3.52
2023-02-09T00:29:43.281Z,-3.52
2023-02-09T00:29:52.964Z,-3.55
2023-02-09T00:30:53.807Z,-3.56
2023-02-09T00:31:54.111Z,-3.56
2023-02-09T00:32:54.831Z,-3.56
2023-02-09T00:33:55.082Z,-3.55
2023-02-09T00:34:56.058Z,-3.55
2023-02-09T00:35:56.970Z,-3.55
2023-02-09T00:36:57.099Z,-3.55
2023-02-09T00:37:58.009Z,-3.55
2023-02-09T00:38:58.957Z,-3.56
2023-02-09T00:39:59.967Z,-3.56
2023-02-09T00:41:00.875Z,-3.57
2023-02-09T00:42:01.617Z,-3.57
2023-02-09T00:43:01.621Z,-3.58
2023-02-09T00:44:01.690Z,-3.59
2023-02-09T00:45:02.253Z,-3.60
2023-02-09T00:46:03.288Z,-3.60
2023-02-09T00:47:04.032Z,-3.61
2023-02-09T00:48:04.904Z,-3.62
2023-02-09T00:49:05.916Z,-3.62
2023-02-09T00:50:06.788Z,-3.62
2023-02-09T00:51:07.705Z,-3.63
2023-02-09T00:52:10.053Z,-3.64
2023-02-09T00:53:09.311Z,-3.64
2023-02-09T00:54:09.397Z,-3.65
2023-02-09T00:55:10.145Z,-3.66
2023-02-09T00:56:11.039Z,-3.66
2023-02-09T00:57:11.022Z,-3.67
2023-02-09T00:58:11.812Z,-3.67
2023-02-09T00:59:12.639Z,-3.67
2023-02-09T01:00:13.450Z,-3.67
2023-02-09T01:01:13.751Z,-3.67
2023-02-09T01:01:25.874Z,-3.66
2023-02-09T01:02:26.628Z,-3.68
2023-02-09T01:03:27.326Z,-3.68
2023-02-09T01:04:27.449Z,-3.68
2023-02-09T01:05:28.036Z,-3.68
2023-02-09T01:06:28.702Z,-3.68
2023-02-09T01:07:28.953Z,-3.67
2023-02-09T01:08:29.925Z,-3.67
2023-02-09T01:09:30.924Z,-3.67
2023-02-09T01:10:31.757Z,-3.67
2023-02-09T01:11:32.055Z,-3.67
2023-02-09T01:12:32.786Z,-3.68
2023-02-09T01:13:34.770Z,-3.68
2023-02-09T01:14:34.039Z,-3.68
2023-02-09T01:15:34.993Z,-3.68
2023-02-09T01:16:35.983Z,-3.68
2023-02-09T01:17:36.374Z,-3.68
2023-02-09T01:18:37.308Z,-3.68
2023-02-09T01:19:37.382Z,-3.68
2023-02-09T01:20:38.224Z,-3.69
2023-02-09T01:21:38.245Z,-3.69
2023-02-09T01:22:38.460Z,-3.69
2023-02-09T01:23:39.405Z,-3.70
2023-02-09T01:24:39.492Z,-3.71
2023-02-09T01:26:06.187Z,-3.83
2023-02-09T01:27:31.983Z,-3.83
2023-02-09T01:28:32.789Z,-3.84
2023-02-09T01:29:33.680Z,-3.84
2023-02-09T01:30:34.698Z,-3.84
2023-02-09T01:31:35.538Z,-3.84
2023-02-09T01:32:35.390Z,-3.83
2023-02-09T01:33:36.259Z,-3.83
2023-02-09T01:34:36.866Z,-3.82
2023-02-09T01:35:37.127Z,-3.81
2023-02-09T01:36:37.975Z,-3.80
2023-02-09T01:37:38.133Z,-3.79
2023-02-09T01:38:38.383Z,-3.78
2023-02-09T01:39:39.263Z,-3.78
2023-02-09T01:40:39.339Z,-3.78
2023-02-09T01:41:39.649Z,-3.77
2023-02-09T01:42:40.371Z,-3.77
2023-02-09T01:43:41.019Z,-3.77
2023-02-09T01:44:41.870Z,-3.77
2023-02-09T01:45:42.722Z,-3.77
2023-02-09T01:46:43.489Z,-3.77
2023-02-09T01:47:44.505Z,-3.77
2023-02-09T01:48:45.002Z,-3.77
2023-02-09T01:49:45.780Z,-3.78
2023-02-09T01:50:46.212Z,-3.78
2023-02-09T01:51:46.169Z,-3.79
2023-02-09T01:52:47.244Z,-3.79
2023-02-09T01:53:46.735Z,-3.79
2023-02-09T01:54:46.952Z,-3.79
2023-02-09T01:55:47.081Z,-3.79
2023-02-09T01:56:47.340Z,-3.80
2023-02-09T01:57:47.808Z,-3.80
2023-02-09T01:58:47.818Z,-3.81
2023-02-09T01:58:57.119Z,-3.86
2023-02-09T01:59:57.623Z,-3.87
2023-02-09T02:00:59.939Z,-3.88
2023-02-09T02:01:57.816Z,-3.88
2023-02-09T02:02:58.677Z,-3.88
2023-02-09T02:03:59.521Z,-3.89
2023-02-09T02:05:00.465Z,-3.90
2023-02-09T02:06:01.152Z,-3.91
2023-02-09T02:07:01.275Z,-3.92
2023-02-09T02:08:01.418Z,-3.93
2023-02-09T02:09:01.483Z,-3.93
2023-02-09T02:10:01.654Z,-3.93
2023-02-09T02:11:01.779Z,-3.93
2023-02-09T02:12:02.116Z,-3.94
2023-02-09T02:13:03.061Z,-3.95
2023-02-09T02:14:03.187Z,-3.96
2023-02-09T02:15:04.063Z,-3.97
2023-02-09T02:16:04.731Z,-3.98
2023-02-09T02:17:04.785Z,-3.98
2023-02-09T02:18:05.760Z,-3.99
2023-02-09T02:19:05.916Z,-4.00
2023-02-09T02:20:06.762Z,-4.01
2023-02-09T02:21:07.005Z,-4.02
2023-02-09T02:22:07.437Z,-4.03
2023-02-09T02:23:08.030Z,-4.04
2023-02-09T02:24:08.210Z,-4.05
2023-02-09T02:25:08.338Z,-4.06
2023-02-09T02:26:08.507Z,-4.07
2023-02-09T02:27:08.519Z,-4.09
2023-02-09T02:28:09.680Z,-4.11
2023-02-09T02:29:10.324Z,-4.13
2023-02-09T02:30:10.497Z,-4.14
2023-02-09T02:30:19.324Z,-4.29
2023-02-09T02:31:19.429Z,-4.34
2023-02-09T02:32:20.317Z,-4.34
2023-02-09T02:33:20.520Z,-4.35
2023-02-09T02:34:21.502Z,-4.35
2023-02-09T02:35:21.601Z,-4.35
2023-02-09T02:36:22.025Z,-4.36
2023-02-09T02:37:22.229Z,-4.36
2023-02-09T02:38:22.381Z,-4.36
2023-02-09T02:39:23.346Z,-4.36
2023-02-09T02:40:24.235Z,-4.36
2023-02-09T02:41:24.490Z,-4.36
2023-02-09T02:42:26.008Z,-4.35
2023-02-09T02:43:26.018Z,-4.35
2023-02-09T02:44:26.904Z,-4.35
2023-02-09T02:45:26.980Z,-4.35
2023-02-09T02:46:27.377Z,-4.35
2023-02-09T02:47:27.554Z,-4.35
2023-02-09T02:48:28.569Z,-4.34
2023-02-09T02:49:28.640Z,-4.35
2023-02-09T02:50:29.630Z,-4.35
2023-02-09T02:51:29.681Z,-4.36
2023-02-09T02:52:30.626Z,-4.36
2023-02-09T02:54:10.618Z,-4.52
2023-02-09T02:55:43.279Z,-4.44
2023-02-09T02:56:43.442Z,-4.50
2023-02-09T02:58:10.123Z,-4.45
2023-02-09T02:59:10.356Z,-4.52
2023-02-09T03:00:10.653Z,-4.52
2023-02-09T03:01:11.168Z,-4.52
2023-02-09T03:02:11.273Z,-4.52
2023-02-09T03:03:12.139Z,-4.52
2023-02-09T03:04:15.956Z,-4.52
2023-02-09T03:05:14.246Z,-4.52
2023-02-09T03:06:13.292Z,-4.51
2023-02-09T03:07:13.415Z,-4.51
2023-02-09T03:08:13.648Z,-4.50
2023-02-09T03:09:13.929Z,-4.50
2023-02-09T03:10:14.958Z,-4.49
2023-02-09T03:11:15.134Z,-4.49
2023-02-09T03:12:15.558Z,-4.49
2023-02-09T03:13:15.795Z,-4.49
2023-02-09T03:14:15.973Z,-4.49
2023-02-09T03:15:16.874Z,-4.49
2023-02-09T03:16:17.717Z,-4.49
2023-02-09T03:17:17.712Z,-4.49
2023-02-09T03:18:18.723Z,-4.48
2023-02-09T03:19:18.710Z,-4.48
2023-02-09T03:20:18.887Z,-4.48
2023-02-09T03:21:19.889Z,-4.48
2023-02-09T03:22:19.927Z,-4.48
2023-02-09T03:23:20.758Z,-4.49
2023-02-09T03:24:21.626Z,-4.49
2023-02-09T03:25:22.373Z,-4.49
2023-02-09T03:26:22.721Z,-4.50
2023-02-09T03:27:22.809Z,-4.50
2023-02-09T03:28:23.856Z,-4.50
2023-02-09T03:29:23.979Z,-4.50
2023-02-09T03:29:33.400Z,-4.43
2023-02-09T03:30:34.082Z,-4.48
2023-02-09T03:31:34.598Z,-4.48
2023-02-09T03:32:35.087Z,-4.48
2023-02-09T03:33:35.119Z,-4.48
2023-02-09T03:34:35.132Z,-4.49
2023-02-09T03:35:35.298Z,-4.48
2023-02-09T03:36:36.276Z,-4.48
2023-02-09T03:37:36.387Z,-4.48
2023-02-09T03:38:37.212Z,-4.48
2023-02-09T03:39:37.973Z,-4.48
2023-02-09T03:40:38.869Z,-4.48
2023-02-09T03:41:39.646Z,-4.48
2023-02-09T03:42:39.725Z,-4.48
2023-02-09T03:43:40.446Z,-4.48
2023-02-09T03:44:41.225Z,-4.48
2023-02-09T03:45:41.273Z,-4.49
2023-02-09T03:46:41.872Z,-4.49
2023-02-09T03:47:43.889Z,-4.49
2023-02-09T03:48:43.752Z,-4.50
2023-02-09T03:49:44.588Z,-4.50
2023-02-09T03:50:45.182Z,-4.51
2023-02-09T03:51:45.678Z,-4.51
2023-02-09T03:52:46.611Z,-4.52
2023-02-09T03:53:47.507Z,-4.53
2023-02-09T03:54:47.834Z,-4.55
2023-02-09T03:55:47.966Z,-4.56
2023-02-09T03:56:48.059Z,-4.57
2023-02-09T03:57:49.058Z,-4.58
2023-02-09T03:58:49.377Z,-4.59
2023-02-09T03:59:50.233Z,-4.60
2023-02-09T04:00:51.076Z,-4.60
2023-02-09T04:01:51.880Z,-4.60
2023-02-09T04:02:01.640Z,-4.55
2023-02-09T04:03:01.706Z,-4.62
2023-02-09T04:04:02.507Z,-4.62
2023-02-09T04:05:05.662Z,-4.62
2023-02-09T04:06:04.261Z,-4.62
2023-02-09T04:07:05.255Z,-4.62
2023-02-09T04:08:50.929Z,-4.63
2023-02-09T04:09:50.990Z,-4.72
2023-02-09T04:10:51.388Z,-4.72
2023-02-09T04:11:51.414Z,-4.73
2023-02-09T04:12:53.242Z,-4.73
2023-02-09T04:13:52.331Z,-4.73
2023-02-09T04:14:53.237Z,-4.72
2023-02-09T04:15:54.176Z,-4.72
2023-02-09T04:16:54.885Z,-4.72
2023-02-09T04:17:55.603Z,-4.72
2023-02-09T04:18:56.500Z,-4.72
2023-02-09T04:19:57.335Z,-4.72
2023-02-09T04:20:58.263Z,-4.73
2023-02-09T04:21:58.600Z,-4.73
2023-02-09T04:22:59.115Z,-4.74
2023-02-09T04:23:59.444Z,-4.74
2023-02-09T04:25:00.253Z,-4.75
2023-02-09T04:26:00.366Z,-4.76
2023-02-09T04:27:01.340Z,-4.76
2023-02-09T04:28:02.170Z,-4.76
2023-02-09T04:29:02.738Z,-4.77
2023-02-09T04:30:03.711Z,-4.77
2023-02-09T04:31:03.913Z,-4.77
2023-02-09T04:32:04.377Z,-4.78
2023-02-09T04:33:04.838Z,-4.78
2023-02-09T04:34:05.278Z,-4.79
2023-02-09T04:35:05.556Z,-4.79
2023-02-09T04:36:05.579Z,-4.80
2023-02-09T04:37:06.448Z,-4.81
2023-02-09T04:38:07.185Z,-4.82
2023-02-09T04:39:08.131Z,-4.83
2023-02-09T04:39:16.986Z,-4.90
2023-02-09T04:40:17.705Z,-4.98
2023-02-09T04:41:18.619Z,-4.98
2023-02-09T04:42:19.461Z,-4.98
2023-02-09T04:43:19.498Z,-4.98
2023-02-09T04:44:20.490Z,-4.98
2023-02-09T04:45:20.541Z,-4.98
2023-02-09T04:46:21.542Z,-4.98
2023-02-09T04:47:21.530Z,-4.97
2023-02-09T04:48:22.207Z,-4.97
2023-02-09T04:49:22.875Z,-4.97
2023-02-09T04:50:23.952Z,-4.97
2023-02-09T04:51:24.836Z,-4.98
2023-02-09T04:52:24.828Z,-4.98
2023-02-09T04:54:59.396Z,-5.02
2023-02-09T04:55:59.551Z,-5.08
2023-02-09T04:57:03.609Z,-5.09
2023-02-09T04:58:01.312Z,-5.09
2023-02-09T04:59:02.381Z,-5.09
2023-02-09T05:00:02.375Z,-5.10
2023-02-09T05:01:02.796Z,-5.10
2023-02-09T05:02:02.886Z,-5.10
2023-02-09T05:03:02.887Z,-5.11
2023-02-09T05:04:03.552Z,-5.11
2023-02-09T05:05:49.853Z,-5.01
2023-02-09T05:06:49.967Z,-5.10
2023-02-09T05:07:49.993Z,-5.10
2023-02-09T05:08:50.959Z,-5.09
2023-02-09T05:09:51.902Z,-5.08
2023-02-09T05:10:51.871Z,-5.08
2023-02-09T05:11:52.153Z,-5.08
2023-02-09T05:12:52.920Z,-5.09
2023-02-09T05:13:53.216Z,-5.10
2023-02-09T05:14:53.331Z,-5.10
2023-02-09T05:15:53.401Z,-5.10
2023-02-09T05:16:53.985Z,-5.11
2023-02-09T05:17:54.765Z,-5.11
2023-02-09T05:18:54.948Z,-5.12
2023-02-09T05:19:54.970Z,-5.13
2023-02-09T05:20:55.087Z,-5.14
2023-02-09T05:21:55.169Z,-5.14
2023-02-09T05:22:55.943Z,-5.15
2023-02-09T05:23:56.113Z,-5.15
2023-02-09T05:24:56.144Z,-5.16
2023-02-09T05:25:56.901Z,-5.16
2023-02-09T05:26:57.887Z,-5.16
2023-02-09T05:27:58.834Z,-5.17
2023-02-09T05:28:59.663Z,-5.17
2023-02-09T05:30:00.453Z,-5.18
2023-02-09T05:31:01.423Z,-5.18
2023-02-09T05:32:01.415Z,-5.19
2023-02-09T05:33:01.427Z,-5.20
2023-02-09T05:34:01.521Z,-5.21
2023-02-09T05:35:02.466Z,-5.21
2023-02-09T05:36:02.638Z,-5.21
2023-02-09T05:37:03.580Z,-5.21
2023-02-09T05:37:12.224Z,-5.14
2023-02-09T05:38:13.106Z,-5.21
2023-02-09T05:39:14.085Z,-5.21
2023-02-09T05:40:14.757Z,-5.21
2023-02-09T05:41:14.838Z,-5.22
2023-02-09T05:42:14.897Z,-5.22
2023-02-09T05:43:14.887Z,-5.22
2023-02-09T05:44:15.257Z,-5.23
2023-02-09T05:45:16.192Z,-5.23
2023-02-09T05:46:17.251Z,-5.23
2023-02-09T05:47:17.613Z,-5.23
2023-02-09T05:48:18.473Z,-5.24
2023-02-09T05:49:19.136Z,-5.24
2023-02-09T05:50:20.002Z,-5.24
2023-02-09T05:51:20.969Z,-5.24
2023-02-09T05:52:21.021Z,-5.24
2023-02-09T05:53:21.872Z,-5.24
2023-02-09T05:54:22.816Z,-5.25
2023-02-09T05:55:23.078Z,-5.25
2023-02-09T05:56:23.317Z,-5.26
2023-02-09T05:57:24.180Z,-5.26
2023-02-09T05:58:24.221Z,-5.27
2023-02-09T05:59:24.777Z,-5.27
2023-02-09T06:00:25.372Z,-5.28
2023-02-09T06:01:25.369Z,-5.28
2023-02-09T06:02:25.654Z,-5.28
2023-02-09T06:03:25.820Z,-5.29
2023-02-09T06:04:25.810Z,-5.29
2023-02-09T06:05:26.804Z,-5.30
2023-02-09T06:06:26.808Z,-5.30
2023-02-09T06:07:26.938Z,-5.30
2023-02-09T06:08:34.135Z,-5.31
2023-02-09T06:09:18.079Z,-5.27
2023-02-09T06:10:46.846Z,-5.27
2023-02-09T06:11:47.440Z,-5.32
2023-02-09T06:12:47.589Z,-5.32
2023-02-09T06:13:47.864Z,-5.32
2023-02-09T06:14:48.395Z,-5.33
2023-02-09T06:15:49.299Z,-5.33
2023-02-09T06:16:49.520Z,-5.33
2023-02-09T06:17:50.538Z,-5.33
2023-02-09T06:18:50.732Z,-5.33
2023-02-09T06:19:51.652Z,-5.33
2023-02-09T06:20:52.490Z,-5.33
2023-02-09T06:21:53.395Z,-5.33
2023-02-09T06:22:53.506Z,-5.33
2023-02-09T06:23:54.493Z,-5.34
2023-02-09T06:24:55.421Z,-5.35
2023-02-09T06:25:55.634Z,-5.36
2023-02-09T06:26:56.491Z,-5.36
2023-02-09T06:27:56.587Z,-5.37
2023-02-09T06:28:57.301Z,-5.37
2023-02-09T06:29:58.296Z,-5.38
2023-02-09T06:30:59.379Z,-5.38
2023-02-09T06:32:00.263Z,-5.38
2023-02-09T06:33:00.679Z,-5.38
2023-02-09T06:34:01.583Z,-5.38
2023-02-09T06:35:02.162Z,-5.38
2023-02-09T06:36:02.219Z,-5.38
2023-02-09T06:37:05.180Z,-5.38
2023-02-09T06:40:07.277Z,-5.37
2023-02-09T06:41:07.324Z,-5.42
2023-02-09T06:42:08.169Z,-5.42
2023-02-09T06:43:09.009Z,-5.42
2023-02-09T06:44:09.134Z,-5.42
2023-02-09T06:45:09.333Z,-5.43
2023-02-09T06:46:09.717Z,-5.43
2023-02-09T06:47:09.967Z,-5.43
2023-02-09T06:48:10.935Z,-5.43
2023-02-09T06:49:11.688Z,-5.43
2023-02-09T06:50:11.855Z,-5.43
2023-02-09T06:51:11.985Z,-5.43
2023-02-09T06:52:12.618Z,-5.43
2023-02-09T06:53:13.554Z,-5.43
2023-02-09T06:54:13.885Z,-5.43
2023-02-09T06:55:14.833Z,-5.43
2023-02-09T06:56:14.918Z,-5.43
2023-02-09T06:57:14.937Z,-5.43
2023-02-09T06:58:15.795Z,-5.43
2023-02-09T06:59:16.737Z,-5.43
2023-02-09T07:00:16.991Z,-5.43
2023-02-09T07:01:18.029Z,-5.43
2023-02-09T07:02:18.116Z,-5.43
2023-02-09T07:03:18.941Z,-5.43
2023-02-09T07:04:19.833Z,-5.44
2023-02-09T07:05:20.383Z,-5.44
2023-02-09T07:06:20.881Z,-5.45
2023-02-09T07:07:25.512Z,-5.44
2023-02-09T07:08:21.110Z,-5.44
2023-02-09T07:09:21.998Z,-5.44
2023-02-09T07:10:22.785Z,-5.43
2023-02-09T07:10:33.430Z,-5.28
2023-02-09T07:11:33.995Z,-5.36
2023-02-09T07:12:34.881Z,-5.36
2023-02-09T07:13:35.075Z,-5.36
2023-02-09T07:14:35.443Z,-5.36
2023-02-09T07:15:36.385Z,-5.36
2023-02-09T07:16:37.200Z,-5.36
2023-02-09T07:17:37.201Z,-5.36
2023-02-09T07:18:38.189Z,-5.35
2023-02-09T07:19:39.070Z,-5.35
2023-02-09T07:20:39.387Z,-5.34
2023-02-09T07:21:39.660Z,-5.34
2023-02-09T07:22:40.197Z,-5.35
2023-02-09T07:23:41.200Z,-5.35
2023-02-09T07:24:41.306Z,-5.35
2023-02-09T07:25:41.426Z,-5.36
2023-02-09T07:26:42.259Z,-5.36
2023-02-09T07:27:43.144Z,-5.37
2023-02-09T07:28:44.075Z,-5.37
2023-02-09T07:29:44.990Z,-5.37
2023-02-09T07:30:46.168Z,-5.37
2023-02-09T07:31:46.790Z,-5.37
2023-02-09T07:32:47.329Z,-5.37
2023-02-09T07:33:48.267Z,-5.38
2023-02-09T07:34:48.407Z,-5.37
2023-02-09T07:35:49.359Z,-5.37
2023-02-09T07:36:49.652Z,-5.37
2023-02-09T07:37:50.514Z,-5.37
2023-02-09T07:38:50.638Z,-5.37
2023-02-09T07:39:51.493Z,-5.36
2023-02-09T07:40:51.674Z,-5.36
2023-02-09T07:41:01.347Z,-5.21
2023-02-09T07:42:02.328Z,-5.28
2023-02-09T07:43:03.155Z,-5.28
2023-02-09T07:44:03.220Z,-5.28
2023-02-09T07:45:03.754Z,-5.27
2023-02-09T07:46:03.750Z,-5.27
2023-02-09T07:47:04.582Z,-5.26
2023-02-09T07:48:04.838Z,-5.25
2023-02-09T07:49:04.897Z,-5.24
2023-02-09T07:50:05.021Z,-5.23
2023-02-09T07:51:05.209Z,-5.22
2023-02-09T07:52:05.719Z,-5.22
2023-02-09T07:53:06.623Z,-5.21
2023-02-09T07:54:07.499Z,-5.20
2023-02-09T07:55:06.742Z,-5.19
2023-02-09T07:56:07.721Z,-5.18
2023-02-09T07:57:08.650Z,-5.17
2023-02-09T07:58:09.403Z,-5.16
2023-02-09T07:59:09.557Z,-5.15
2023-02-09T08:00:10.095Z,-5.14
2023-02-09T08:01:10.122Z,-5.14
2023-02-09T08:02:10.220Z,-5.13
2023-02-09T08:03:10.363Z,-5.12
2023-02-09T08:04:18.343Z,-5.12
2023-02-09T08:05:11.525Z,-5.11
2023-02-09T08:06:11.643Z,-5.10
2023-02-09T08:07:12.466Z,-5.09
2023-02-09T08:07:31.114Z,-5.06
2023-02-09T08:08:31.112Z,-5.05
2023-02-09T08:09:32.952Z,-5.04
2023-02-09T08:10:32.185Z,-5.04
2023-02-09T08:15:16.693Z,-4.61
2023-02-09T08:16:15.768Z,-4.66
2023-02-09T08:17:15.495Z,-4.65
2023-02-09T08:18:15.710Z,-4.66
2023-02-09T08:19:23.534Z,-4.67
2023-02-09T08:20:18.161Z,-4.70
2023-02-09T08:21:17.339Z,-4.72
2023-02-09T08:23:37.566Z,-4.96
2023-02-09T08:24:36.821Z,-5.02
2023-02-09T08:25:36.955Z,-5.02
2023-02-09T08:26:37.974Z,-5.02
2023-02-09T08:27:38.717Z,-5.02
2023-02-09T08:28:44.274Z,-5.02
2023-02-09T08:29:39.614Z,-5.02
2023-02-09T08:30:40.448Z,-5.02
2023-02-09T08:31:40.725Z,-5.02
2023-02-09T08:33:13.469Z,-4.87
2023-02-09T08:34:13.438Z,-4.92
2023-02-09T08:35:14.025Z,-4.92
2023-02-09T08:36:14.963Z,-4.92
2023-02-09T08:37:15.642Z,-4.91
2023-02-09T08:38:16.580Z,-4.90
2023-02-09T08:39:16.730Z,-4.90
2023-02-09T08:40:16.770Z,-4.90
2023-02-09T08:41:17.651Z,-4.89
2023-02-09T08:42:18.915Z,-4.88
2023-02-09T08:43:18.997Z,-4.88
2023-02-09T08:44:19.845Z,-4.87
2023-02-09T08:45:20.566Z,-4.86
2023-02-09T08:46:22.255Z,-4.86
2023-02-09T08:47:22.095Z,-4.85
2023-02-09T08:48:23.169Z,-4.84
2023-02-09T08:49:23.102Z,-4.83
2023-02-09T08:50:23.490Z,-4.82
2023-02-09T08:51:23.698Z,-4.82
2023-02-09T08:52:23.767Z,-4.81
2023-02-09T08:53:24.456Z,-4.80
2023-02-09T08:54:24.673Z,-4.79
2023-02-09T08:55:25.341Z,-4.78
2023-02-09T08:56:25.646Z,-4.77
2023-02-09T08:57:41.658Z,-4.76
2023-02-09T08:58:25.979Z,-4.75
2023-02-09T08:59:26.906Z,-4.74
2023-02-09T09:00:27.034Z,-4.74
2023-02-09T09:01:27.470Z,-4.73
2023-02-09T09:02:28.345Z,-4.73
2023-02-09T09:03:28.893Z,-4.72
2023-02-09T09:03:37.620Z,-4.56
2023-02-09T09:04:38.381Z,-4.62
2023-02-09T09:05:38.481Z,-4.62
2023-02-09T09:06:38.530Z,-4.62
2023-02-09T09:07:40.151Z,-4.62
2023-02-09T09:08:39.199Z,-4.61
2023-02-09T09:09:39.519Z,-4.61
2023-02-09T09:10:39.927Z,-4.60
2023-02-09T09:11:40.817Z,-4.59
2023-02-09T09:12:40.861Z,-4.58
2023-02-09T09:13:40.862Z,-4.57
2023-02-09T09:14:41.186Z,-4.55
2023-02-09T09:15:41.606Z,-4.54
2023-02-09T09:16:42.657Z,-4.53
2023-02-09T09:17:42.682Z,-4.52
2023-02-09T09:18:43.589Z,-4.51
2023-02-09T09:19:44.524Z,-4.51
2023-02-09T09:20:45.372Z,-4.50
2023-02-09T09:21:45.629Z,-4.50
2023-02-09T09:22:46.199Z,-4.49
2023-02-09T09:23:46.151Z,-4.48
2023-02-09T09:24:47.083Z,-4.47
2023-02-09T09:25:48.142Z,-4.46
2023-02-09T09:26:48.611Z,-4.45
2023-02-09T09:27:48.700Z,-4.43
2023-02-09T09:28:48.932Z,-4.42
2023-02-09T09:29:49.663Z,-4.40
2023-02-09T09:30:49.441Z,-4.39
2023-02-09T09:31:49.581Z,-4.37
2023-02-09T09:32:52.976Z,-4.35
2023-02-09T09:33:51.261Z,-4.33
2023-02-09T09:33:59.929Z,-3.95
2023-02-09T09:34:59.983Z,-4.00
2023-02-09T09:36:00.412Z,-4.01
2023-02-09T09:37:00.650Z,-4.00
2023-02-09T09:38:01.614Z,-4.00
2023-02-09T09:39:02.119Z,-4.00
2023-02-09T09:40:02.334Z,-4.00
2023-02-09T09:41:02.525Z,-4.00
2023-02-09T09:42:03.313Z,-3.99
2023-02-09T09:43:03.751Z,-3.98
2023-02-09T09:44:04.555Z,-3.98
2023-02-09T09:45:05.579Z,-3.96
2023-02-09T09:46:05.808Z,-3.95
2023-02-09T09:47:06.322Z,-3.94
2023-02-09T09:48:07.173Z,-3.92
2023-02-09T09:49:07.554Z,-3.90
2023-02-09T09:50:08.602Z,-3.88
2023-02-09T09:51:09.212Z,-3.86
2023-02-09T09:52:09.714Z,-3.84
2023-02-09T09:53:09.782Z,-3.82
2023-02-09T09:54:09.933Z,-3.81
2023-02-09T09:55:10.233Z,-3.79
2023-02-09T09:56:10.551Z,-3.77
2023-02-09T09:57:10.678Z,-3.75
2023-02-09T09:58:10.971Z,-3.73
2023-02-09T09:59:11.191Z,-3.72
2023-02-09T10:00:11.700Z,-3.70
2023-02-09T10:01:12.094Z,-3.68
2023-02-09T10:02:14.048Z,-3.67
2023-02-09T10:03:12.535Z,-3.65
2023-02-09T10:03:32.045Z,-3.67
2023-02-09T10:04:36.436Z,-3.65
2023-02-09T10:05:31.482Z,-3.63
2023-02-09T10:06:34.938Z,-3.62
2023-02-09T10:07:32.194Z,-3.60
2023-02-09T10:08:32.524Z,-3.59
2023-02-09T10:09:32.711Z,-3.57
2023-02-09T10:10:33.740Z,-3.55
2023-02-09T10:11:33.852Z,-3.53
2023-02-09T10:12:34.322Z,-3.51
2023-02-09T10:13:35.207Z,-3.49
2023-02-09T10:14:35.590Z,-3.47
2023-02-09T10:15:35.716Z,-3.45
2023-02-09T10:16:36.025Z,-3.44
2023-02-09T10:17:36.849Z,-3.42
2023-02-09T10:18:36.971Z,-3.39
2023-02-09T10:19:37.222Z,-3.37
2023-02-09T10:20:37.437Z,-3.35
2023-02-09T10:21:37.690Z,-3.33
2023-02-09T10:22:37.798Z,-3.30
2023-02-09T10:23:38.758Z,-3.28
2023-02-09T10:24:39.202Z,-3.24
2023-02-09T10:25:40.254Z,-3.20
2023-02-09T10:27:23.798Z,-1.95
2023-02-09T10:28:57.323Z,-2.12
2023-02-09T10:29:57.292Z,-2.22
2023-02-09T10:30:57.456Z,-2.22
2023-02-09T10:31:58.259Z,-2.20
2023-02-09T10:32:59.133Z,-2.16
2023-02-09T10:33:59.262Z,-2.10
2023-02-09T10:34:59.416Z,-2.03
2023-02-09T10:36:00.098Z,-1.96
2023-02-09T10:37:00.746Z,-1.87
2023-02-09T10:38:00.919Z,-1.76
2023-02-09T10:39:01.182Z,-1.64
2023-02-09T10:40:01.987Z,-1.53
2023-02-09T10:41:01.968Z,-1.42
2023-02-09T10:42:02.803Z,-1.35
2023-02-09T10:43:02.818Z,-1.26
2023-02-09T10:44:03.688Z,-1.17
2023-02-09T10:45:04.797Z,-1.06
2023-02-09T10:46:05.551Z,-0.95
2023-02-09T10:47:06.531Z,-0.83
2023-02-09T10:48:06.505Z,-0.71
2023-02-09T10:49:06.607Z,-0.60
2023-02-09T10:50:07.541Z,-0.50
2023-02-09T10:51:07.546Z,-0.41
2023-02-09T10:52:08.034Z,-0.32
2023-02-09T10:53:08.883Z,-0.23
2023-02-09T10:54:10.130Z,-0.14
2023-02-09T10:55:10.116Z,-0.04
2023-02-09T10:56:10.479Z,0.06
2023-02-09T10:57:10.566Z,0.16
2023-02-09T10:58:11.561Z,0.25
2023-02-09T10:59:11.531Z,0.32
2023-02-09T11:00:12.225Z,0.39
2023-02-09T11:00:20.923Z,1.34
2023-02-09T11:01:21.225Z,1.31
2023-02-09T11:02:21.785Z,1.29
2023-02-09T11:03:21.897Z,1.27
2023-02-09T11:04:22.298Z,1.24
2023-02-09T11:05:22.657Z,1.24
2023-02-09T11:06:22.815Z,1.25
2023-02-09T11:07:22.954Z,1.26
2023-02-09T11:08:24.922Z,1.25
2023-02-09T11:09:24.200Z,1.26
2023-02-09T11:10:25.090Z,1.28
2023-02-09T11:11:26.221Z,1.30
2023-02-09T11:12:26.001Z,1.31
2023-02-09T11:13:26.125Z,1.31
2023-02-09T11:14:26.863Z,1.32
2023-02-09T11:15:27.007Z,1.34
2023-02-09T11:16:27.553Z,1.36
2023-02-09T11:17:27.691Z,1.37
2023-02-09T11:18:27.712Z,1.40
2023-02-09T11:19:28.699Z,1.45
2023-02-09T11:20:29.619Z,1.49
2023-02-09T11:21:29.625Z,1.52
2023-02-09T11:22:30.169Z,1.56
2023-02-09T11:23:30.935Z,1.61
2023-02-09T11:24:31.234Z,1.66
2023-02-09T11:25:32.037Z,1.72
2023-02-09T11:26:32.926Z,1.77
2023-02-09T11:27:33.892Z,1.82
2023-02-09T11:28:34.941Z,1.88
2023-02-09T11:29:35.748Z,1.94
2023-02-09T11:29:46.452Z,2.96
2023-02-09T11:30:47.145Z,2.94
2023-02-09T11:31:49.154Z,2.93
2023-02-09T11:32:47.526Z,2.93
2023-02-09T11:33:48.431Z,2.94
2023-02-09T11:34:48.808Z,2.95
2023-02-09T11:35:49.733Z,2.97
2023-02-09T11:36:50.727Z,2.99
2023-02-09T11:37:50.913Z,3.01
2023-02-09T11:38:51.009Z,3.03
2023-02-09T11:39:53.323Z,3.06
2023-02-09T11:40:51.257Z,3.06
2023-02-09T11:41:51.387Z,3.08
2023-02-09T11:42:51.646Z,3.08
2023-02-09T11:43:51.756Z,3.09
2023-02-09T11:44:52.258Z,3.10
2023-02-09T11:45:52.291Z,3.09
2023-02-09T11:46:52.305Z,3.08
2023-02-09T11:47:52.613Z,3.08
2023-02-09T11:48:52.801Z,3.07
2023-02-09T11:49:52.851Z,3.07
2023-02-09T11:50:53.761Z,3.09
2023-02-09T11:51:53.995Z,3.10
2023-02-09T11:52:55.018Z,3.12
2023-02-09T11:53:55.219Z,3.14
2023-02-09T11:54:56.117Z,3.15
2023-02-09T11:55:57.058Z,3.16
2023-02-09T11:56:57.259Z,3.17
2023-02-09T11:57:58.182Z,3.19
2023-02-09T11:58:59.120Z,3.21
2023-02-09T12:00:00.147Z,3.23
2023-02-09T12:01:10.155Z,3.23
2023-02-09T12:01:15.556Z,3.36
2023-02-09T12:02:09.286Z,3.34
2023-02-09T12:03:10.344Z,3.35
2023-02-09T12:04:11.159Z,3.36
2023-02-09T12:05:11.698Z,3.37
2023-02-09T12:06:12.251Z,3.39
2023-02-09T12:07:12.816Z,3.41
2023-02-09T12:08:13.101Z,3.43
2023-02-09T12:09:13.547Z,3.45
2023-02-09T12:10:13.531Z,3.47
2023-02-09T12:11:13.667Z,3.50
2023-02-09T12:12:14.701Z,3.52
2023-02-09T12:13:14.954Z,3.54
2023-02-09T12:14:15.953Z,3.55
2023-02-09T12:15:16.087Z,3.56
2023-02-09T12:16:16.330Z,3.59
2023-02-09T12:17:16.651Z,3.61
2023-02-09T12:18:16.828Z,3.63
2023-02-09T12:19:17.024Z,3.65
2023-02-09T12:20:17.039Z,3.67
2023-02-09T12:21:17.070Z,3.68
2023-02-09T12:22:17.403Z,3.69
2023-02-09T12:23:17.579Z,3.71
2023-02-09T12:24:18.459Z,3.72
2023-02-09T12:25:19.125Z,3.73
2023-02-09T12:26:19.490Z,3.73
2023-02-09T12:27:19.512Z,3.74
2023-02-09T12:27:28.660Z,4.02
2023-02-09T12:28:28.750Z,3.90
2023-02-09T12:29:28.732Z,3.90
2023-02-09T12:30:28.786Z,3.90
2023-02-09T12:31:29.405Z,3.90
2023-02-09T12:32:29.559Z,3.91
2023-02-09T12:33:30.370Z,3.91
2023-02-09T12:34:30.583Z,3.92
2023-02-09T12:35:31.489Z,3.93
2023-02-09T12:36:31.468Z,3.94
2023-02-09T12:37:32.423Z,3.95
2023-02-09T12:38:33.293Z,3.98
2023-02-09T12:39:34.076Z,4.01
2023-02-09T12:40:34.994Z,4.04
2023-02-09T12:41:35.152Z,4.06
2023-02-09T12:42:35.996Z,4.09
2023-02-09T12:43:36.693Z,4.13
2023-02-09T12:44:37.082Z,4.16
2023-02-09T12:45:37.280Z,4.17
2023-02-09T12:46:37.246Z,4.18
2023-02-09T12:47:38.061Z,4.19
2023-02-09T12:48:39.307Z,4.21
2023-02-09T12:49:39.256Z,4.23
2023-02-09T12:50:39.623Z,4.25
2023-02-09T12:51:39.628Z,4.27
2023-02-09T12:52:40.558Z,4.29
2023-02-09T12:53:40.639Z,4.31
2023-02-09T12:54:40.844Z,4.34
2023-02-09T12:55:41.045Z,4.36
2023-02-09T12:56:41.427Z,4.39
2023-02-09T12:57:42.313Z,4.41
2023-02-09T12:57:51.440Z,5.01
2023-02-09T12:58:51.675Z,4.90
2023-02-09T12:59:51.766Z,4.90
2023-02-09T13:00:52.723Z,4.91
2023-02-09T13:01:53.366Z,4.91